createdAt,value
2023-05-20T00:02:03.001Z,-18680.00
2023-05-20T00:07:04.552Z,-18676.00
2023-05-20T00:12:05.943Z,-18672.00
2023-05-20T00:17:06.735Z,-18673.00
2023-05-20T00:22:07.849Z,-18666.00
2023-05-20T00:27:08.623Z,-18664.00
2023-05-20T00:32:09.932Z,-18662.00
2023-05-20T00:37:10.728Z,-18659.00
2023-05-20T00:42:18.834Z,-18656.00
2023-05-20T00:47:25.928Z,-18652.00
2023-05-20T00:52:30.612Z,-18650.00
2023-05-20T00:57:31.430Z,-18647.00
2023-05-20T01:02:32.541Z,-18649.00
2023-05-20T01:07:33.608Z,-18647.00
2023-05-20T01:12:39.248Z,-18646.00
2023-05-20T01:17:45.900Z,-18653.00
2023-05-20T01:22:48.311Z,-18649.00
2023-05-20T01:27:50.221Z,-18649.00
2023-05-20T01:32:56.990Z,-18646.00
2023-05-20T01:37:59.290Z,-18649.00
2023-05-20T01:43:02.011Z,-18651.00
2023-05-20T01:48:03.400Z,-18646.00
2023-05-20T01:53:05.336Z,-18647.00
2023-05-20T01:58:06.124Z,-18651.00
2023-05-20T02:03:07.265Z,-18646.00
2023-05-20T02:08:10.149Z,-18646.00
2023-05-20T02:13:12.015Z,-18646.00
2023-05-20T02:18:17.684Z,-18646.00
2023-05-20T02:23:18.686Z,-18646.00
2023-05-20T02:28:19.555Z,-18645.00
2023-05-20T02:33:20.607Z,-18644.00
2023-05-20T02:38:21.499Z,-18641.00
2023-05-20T02:43:22.364Z,-18638.00
2023-05-20T02:48:23.198Z,-18639.00
2023-05-20T02:53:24.359Z,-18637.00
2023-05-20T02:58:25.470Z,-18634.00
2023-05-20T03:03:26.830Z,-18628.00
2023-05-20T03:08:27.732Z,-18631.00
2023-05-20T03:13:28.865Z,-18630.00
2023-05-20T03:18:32.573Z,-18631.00
2023-05-20T03:23:34.464Z,-18632.00
2023-05-20T03:28:35.581Z,-18633.00
2023-05-20T03:33:36.475Z,-18631.00
2023-05-20T03:38:37.783Z,-18631.00
2023-05-20T03:43:38.847Z,-18629.00
2023-05-20T03:48:40.370Z,-18627.00
2023-05-20T03:53:41.492Z,-18627.00
2023-05-20T03:58:43.566Z,-18620.00
2023-05-20T04:03:44.667Z,-18618.00
2023-05-20T04:08:45.721Z,-18621.00
2023-05-20T04:13:46.639Z,-18620.00
2023-05-20T04:18:48.256Z,-18617.00
2023-05-20T04:23:49.910Z,-18617.00
2023-05-20T04:28:51.149Z,-18620.00
2023-05-20T04:33:53.087Z,-18616.00
2023-05-20T04:38:57.084Z,-18618.00
2023-05-20T04:43:59.690Z,-18616.00
2023-05-20T04:49:00.599Z,-18616.00
2023-05-20T04:54:01.691Z,-18622.00
2023-05-20T04:59:03.370Z,-18618.00
2023-05-20T05:04:04.734Z,-18625.00
2023-05-20T05:09:05.649Z,-18626.00
2023-05-20T05:14:06.615Z,-18626.00
2023-05-20T05:19:10.329Z,-18633.00
2023-05-20T05:24:13.222Z,-18643.00
2023-05-20T05:29:14.867Z,-18647.00
2023-05-20T05:34:15.960Z,-18652.00
2023-05-20T05:39:16.843Z,-18662.00
2023-05-20T05:44:18.627Z,-18668.00
2023-05-20T05:49:20.746Z,-18674.00
2023-05-20T05:54:22.097Z,-18686.00
2023-05-20T05:59:23.881Z,-18697.00
2023-05-20T06:04:25.169Z,-18706.00
2023-05-20T06:09:28.726Z,-18718.00
2023-05-20T06:14:31.842Z,-18725.00
2023-05-20T06:19:33.022Z,-18732.00
2023-05-20T06:24:34.601Z,-18729.00
2023-05-20T06:29:36.240Z,-18722.00
2023-05-20T06:34:37.158Z,-18716.00
2023-05-20T06:39:38.116Z,-18708.00
2023-05-20T06:44:39.015Z,-18707.00
2023-05-20T06:49:49.472Z,-18712.00
2023-05-20T06:54:50.466Z,-18714.00
2023-05-20T06:59:52.244Z,-18733.00
2023-05-20T07:04:54.413Z,-18738.00
2023-05-20T07:09:56.935Z,-18746.00
2023-05-20T07:14:57.801Z,-18752.00
2023-05-20T07:19:59.737Z,-18743.00
2023-05-20T07:25:01.580Z,-18736.00
2023-05-20T07:30:03.545Z,-18721.00
2023-05-20T07:35:08.505Z,-18724.00
2023-05-20T07:40:10.143Z,-18721.00
2023-05-20T07:45:12.346Z,-18731.00
2023-05-20T07:50:13.406Z,-18737.00
2023-05-20T07:55:15.989Z,-18743.00
2023-05-20T08:00:17.373Z,-18749.00
2023-05-20T08:05:18.210Z,-18756.00
2023-05-20T08:10:20.316Z,-18773.00
2023-05-20T08:15:21.730Z,-18769.00
2023-05-20T08:20:23.165Z,-18774.00
2023-05-20T08:25:26.879Z,-18781.00
2023-05-20T08:30:28.297Z,-18789.00
2023-05-20T08:35:29.403Z,-18795.00
2023-05-20T08:40:30.877Z,-18780.00
2023-05-20T08:45:33.589Z,-18768.00
2023-05-20T08:50:38.457Z,-18770.00
2023-05-20T08:55:45.976Z,-18780.00
2023-05-20T09:00:46.830Z,-18779.00
2023-05-20T09:05:48.024Z,-18782.00
2023-05-20T09:10:51.881Z,-18797.00
2023-05-20T09:15:52.963Z,-18804.00
2023-05-20T09:20:54.380Z,-18808.00
2023-05-20T09:25:55.306Z,-18792.00
2023-05-20T09:30:59.274Z,-18796.00
2023-05-20T09:36:04.289Z,-18798.00
2023-05-20T09:41:07.849Z,-18803.00
2023-05-20T09:46:10.100Z,-18797.00
2023-05-20T09:51:12.641Z,-18787.00
2023-05-20T09:56:14.452Z,-18769.00
2023-05-20T10:01:15.468Z,-18766.00
2023-05-20T10:07:06.235Z,-18780.00
2023-05-20T10:12:45.355Z,-18790.00
2023-05-20T10:20:32.223Z,-18799.00
2023-05-20T10:25:33.672Z,-18796.00
2023-05-20T10:30:35.434Z,-18800.00
2023-05-20T10:35:47.457Z,-18793.00
2023-05-20T10:40:48.310Z,-18789.00
2023-05-20T10:45:54.970Z,-18791.00
2023-05-20T10:50:59.014Z,-18803.00
2023-05-20T10:55:59.892Z,-18807.00
2023-05-20T11:01:02.592Z,-18797.00
2023-05-20T11:06:16.054Z,-18794.00
2023-05-20T11:11:18.508Z,-18795.00
2023-05-20T11:16:22.446Z,-18795.00
2023-05-20T11:21:23.306Z,-18795.00
2023-05-20T11:26:24.127Z,-18826.00
2023-05-20T11:31:25.556Z,-18851.00
2023-05-20T11:36:28.418Z,-18850.00
2023-05-20T11:41:29.196Z,-18857.00
2023-05-20T11:46:30.530Z,-18874.00
2023-05-20T11:51:31.488Z,-18885.00
2023-05-20T11:56:36.700Z,-18870.00
2023-05-20T12:01:42.598Z,-18862.00
2023-05-20T12:06:43.520Z,-18897.00
2023-05-20T12:11:44.881Z,-18883.00
2023-05-20T12:16:45.712Z,-18869.00
2023-05-20T12:21:46.589Z,-18856.00
2023-05-20T12:26:47.502Z,-18841.00
2023-05-20T12:31:48.489Z,-18827.00
2023-05-20T12:36:49.323Z,-18848.00
2023-05-20T12:41:50.444Z,-18867.00
2023-05-20T12:46:54.265Z,-18877.00
2023-05-20T12:51:55.158Z,-18883.00
2023-05-20T12:56:56.446Z,-18874.00
2023-05-20T13:01:57.602Z,-18871.00
2023-05-20T13:06:58.857Z,-18875.00
2023-05-20T13:12:02.929Z,-18900.00
2023-05-20T13:17:04.347Z,-18916.00
2023-05-20T13:22:06.130Z,-18910.00
2023-05-20T13:27:07.536Z,-18885.00
2023-05-20T13:32:08.453Z,-18865.00
2023-05-20T13:37:09.302Z,-18857.00
2023-05-20T13:42:10.270Z,-18853.00
2023-05-20T13:47:11.109Z,-18847.00
2023-05-20T13:52:12.005Z,-18856.00
2023-05-20T13:57:12.848Z,-18853.00
2023-05-20T14:02:14.015Z,-18847.00
2023-05-20T14:07:15.029Z,-18833.00
2023-05-20T14:12:16.004Z,-18829.00
2023-05-20T14:17:17.075Z,-18833.00
2023-05-20T14:22:19.214Z,-18836.00
2023-05-20T14:27:20.208Z,-18837.00
2023-05-20T14:32:21.286Z,-18845.00
2023-05-20T14:37:22.324Z,-18850.00
2023-05-20T14:42:23.303Z,-18848.00
2023-05-20T14:47:25.368Z,-18840.00
2023-05-20T14:52:26.488Z,-18839.00
2023-05-20T14:57:27.512Z,-18843.00
2023-05-20T15:02:28.642Z,-18852.00
2023-05-20T15:07:29.683Z,-18867.00
2023-05-20T15:12:30.540Z,-18851.00
2023-05-20T15:17:31.417Z,-18841.00
2023-05-20T15:22:32.510Z,-18842.00
2023-05-20T15:27:33.351Z,-18856.00
2023-05-20T15:32:34.689Z,-18854.00
2023-05-20T15:37:35.714Z,-18848.00
2023-05-20T15:42:36.586Z,-18839.00
2023-05-20T15:47:40.421Z,-18837.00
2023-05-20T15:52:41.826Z,-18852.00
2023-05-20T15:57:42.682Z,-18852.00
2023-05-20T16:02:43.907Z,-18845.00
2023-05-20T16:07:46.075Z,-18840.00
2023-05-20T16:12:47.309Z,-18830.00
2023-05-20T16:17:48.181Z,-18830.00
2023-05-20T16:22:49.458Z,-18825.00
2023-05-20T16:27:50.527Z,-18823.00
2023-05-20T16:32:51.643Z,-18825.00
2023-05-20T16:37:52.498Z,-18826.00
2023-05-20T16:42:53.607Z,-18825.00
2023-05-20T16:47:55.663Z,-18826.00
2023-05-20T16:52:58.248Z,-18823.00
2023-05-20T16:57:59.072Z,-18820.00
2023-05-20T17:03:00.400Z,-18819.00
2023-05-20T17:08:01.368Z,-18821.00
2023-05-20T17:13:03.325Z,-18822.00
2023-05-20T17:18:04.321Z,-18826.00
2023-05-20T17:23:05.340Z,-18828.00
2023-05-20T17:28:06.226Z,-18829.00
2023-05-20T17:33:07.311Z,-18826.00
2023-05-20T17:38:08.210Z,-18829.00
2023-05-20T17:43:09.129Z,-18824.00
2023-05-20T17:48:11.725Z,-18820.00
2023-05-20T17:53:12.889Z,-18819.00
2023-05-20T17:58:13.753Z,-18818.00
2023-05-20T18:03:14.820Z,-18811.00
2023-05-20T18:08:18.324Z,-18804.00
2023-05-20T18:13:19.209Z,-18798.00
2023-05-20T18:18:20.091Z,-18796.00
2023-05-20T18:23:20.901Z,-18796.00
2023-05-20T18:28:21.707Z,-18792.00
2023-05-20T18:33:23.721Z,-18785.00
2023-05-20T18:38:25.135Z,-18781.00
2023-05-20T18:43:26.526Z,-18774.00
2023-05-20T18:48:27.626Z,-18773.00
2023-05-20T18:53:28.635Z,-18769.00
2023-05-20T18:58:29.911Z,-18763.00
2023-05-20T19:03:30.908Z,-18760.00
2023-05-20T19:08:31.765Z,-18757.00
2023-05-20T19:13:33.555Z,-18756.00
2023-05-20T19:18:34.422Z,-18747.00
2023-05-20T19:23:35.567Z,-18745.00
2023-05-20T19:28:36.392Z,-18744.00
2023-05-20T19:33:37.567Z,-18741.00
2023-05-20T19:38:38.387Z,-18739.00
2023-05-20T19:43:40.030Z,-18734.00
2023-05-20T19:48:41.441Z,-18735.00
2023-05-20T19:53:42.279Z,-18732.00
2023-05-20T19:58:43.114Z,-18733.00
2023-05-20T20:03:45.370Z,-18731.00
2023-05-20T20:08:46.292Z,-18730.00
2023-05-20T20:13:47.172Z,-18728.00
2023-05-20T20:18:47.997Z,-18723.00
2023-05-20T20:23:48.881Z,-18729.00
2023-05-20T20:28:49.845Z,-18725.00
2023-05-20T20:33:51.475Z,-18722.00
2023-05-20T20:38:52.292Z,-18718.00
2023-05-20T20:43:53.762Z,-18717.00
2023-05-20T20:48:54.580Z,-18718.00
2023-05-20T20:53:55.479Z,-18714.00
2023-05-20T20:58:56.406Z,-18714.00
2023-05-20T21:03:57.905Z,-18710.00
2023-05-20T21:09:01.258Z,-18704.00
2023-05-20T21:14:02.053Z,-18706.00
2023-05-20T21:19:03.176Z,-18710.00
2023-05-20T21:24:04.289Z,-18713.00
2023-05-20T21:29:06.527Z,-18708.00
2023-05-20T21:34:07.466Z,-18708.00
2023-05-20T21:39:08.392Z,-18707.00
2023-05-20T21:44:09.241Z,-18706.00
2023-05-20T21:49:10.106Z,-18706.00
2023-05-20T21:54:10.928Z,-18705.00
2023-05-20T21:59:12.141Z,-18704.00
2023-05-20T22:04:13.117Z,-18704.00
2023-05-20T22:09:14.108Z,-18706.00
2023-05-20T22:14:15.296Z,-18701.00
2023-05-20T22:19:16.900Z,-18703.00
2023-05-20T22:24:17.988Z,-18706.00
2023-05-20T22:29:19.110Z,-18702.00
2023-05-20T22:34:19.993Z,-18699.00
2023-05-20T22:39:21.277Z,-18701.00
2023-05-20T22:44:22.070Z,-18700.00
2023-05-20T22:49:25.910Z,-18699.00
2023-05-20T22:54:26.755Z,-18698.00
2023-05-20T22:59:30.371Z,-18699.00
2023-05-20T23:04:31.552Z,-18702.00
2023-05-20T23:09:32.741Z,-18694.00
2023-05-20T23:14:33.793Z,-18696.00
2023-05-20T23:19:34.753Z,-18693.00
2023-05-20T23:24:35.664Z,-18692.00
2023-05-20T23:29:37.026Z,-18693.00
2023-05-20T23:34:37.950Z,-18692.00
2023-05-20T23:39:38.792Z,-18693.00
2023-05-20T23:44:39.979Z,-18691.00
2023-05-20T23:49:40.824Z,-18693.00
2023-05-20T23:54:41.633Z,-18696.00
2023-05-20T23:59:42.929Z,-18698.00
